Lanesville, Illinois
Current Conditions -  °F | °C
As of 1:52 PM on Tuesday 21 Oct 2014 (Local Time) from KSPI Reporting Station
Clear Clear  
Wind Chill: 62°   Ceiling: Unl
Heat Index: 62°   Visibility: 10mi
Dew Point: 41°   Wind: 15mph
Humidity: 46%   Direction: 40°NE
Pressure: 30.14"   Gusts: 20mph
Location:  39.8448°N, 89.3474°W
Report Text: KSPI 211852Z 04013G17KT 10SM CLR 17/05 A3014 RMK AO2 SLP206 T01670050
Loading
Personal Weather Stations






























Interactive Weather Map
Tropical Storm Tracking
New forecast layout! Learn more

10-Day Weather Forecast

Advertisements
Track Severe Weather on mobile